sensor_id;sensor_type;location;lat;lon;timestamp;P1;durP1;ratioP1;P2;durP2;ratioP2
19758;SDS011;10038;42.662;23.278;2023-06-04T00:02:13;8.03;;;7.23;;
19758;SDS011;10038;42.662;23.278;2023-06-04T00:04:40;12.07;;;9.27;;
19758;SDS011;10038;42.662;23.278;2023-06-04T00:07:06;10.83;;;7.73;;
19758;SDS011;10038;42.662;23.278;2023-06-04T00:09:33;11.33;;;8.13;;
19758;SDS011;10038;42.662;23.278;2023-06-04T00:12:00;10.30;;;7.63;;
19758;SDS011;10038;42.662;23.278;2023-06-04T00:14:28;15.90;;;8.17;;
19758;SDS011;10038;42.662;23.278;2023-06-04T00:16:54;11.40;;;9.03;;
19758;SDS011;10038;42.662;23.278;2023-06-04T00:19:21;14.43;;;7.47;;
19758;SDS011;10038;42.662;23.278;2023-06-04T00:21:47;10.03;;;8.50;;
19758;SDS011;10038;42.662;23.278;2023-06-04T00:24:14;10.57;;;8.63;;
19758;SDS011;10038;42.662;23.278;2023-06-04T00:26:40;10.50;;;8.87;;
19758;SDS011;10038;42.662;23.278;2023-06-04T00:29:07;12.63;;;7.83;;
19758;SDS011;10038;42.662;23.278;2023-06-04T00:31:35;13.63;;;8.43;;
19758;SDS011;10038;42.662;23.278;2023-06-04T00:34:02;8.70;;;7.80;;
19758;SDS011;10038;42.662;23.278;2023-06-04T00:36:29;10.37;;;8.57;;
19758;SDS011;10038;42.662;23.278;2023-06-04T00:38:55;18.73;;;8.90;;
19758;SDS011;10038;42.662;23.278;2023-06-04T00:41:22;10.93;;;7.73;;
19758;SDS011;10038;42.662;23.278;2023-06-04T00:43:48;17.50;;;10.07;;
19758;SDS011;10038;42.662;23.278;2023-06-04T00:46:20;12.80;;;9.77;;
19758;SDS011;10038;42.662;23.278;2023-06-04T00:48:48;11.83;;;9.07;;
19758;SDS011;10038;42.662;23.278;2023-06-04T00:51:15;11.70;;;9.33;;
19758;SDS011;10038;42.662;23.278;2023-06-04T00:53:42;14.30;;;8.80;;
19758;SDS011;10038;42.662;23.278;2023-06-04T00:56:09;13.90;;;9.20;;
19758;SDS011;10038;42.662;23.278;2023-06-04T00:58:36;14.27;;;11.27;;
19758;SDS011;10038;42.662;23.278;2023-06-04T01:01:04;11.30;;;9.10;;
19758;SDS011;10038;42.662;23.278;2023-06-04T01:03:32;13.00;;;10.43;;
19758;SDS011;10038;42.662;23.278;2023-06-04T01:06:02;13.43;;;9.97;;
19758;SDS011;10038;42.662;23.278;2023-06-04T01:08:30;12.20;;;9.80;;
19758;SDS011;10038;42.662;23.278;2023-06-04T01:10:57;14.50;;;9.07;;
19758;SDS011;10038;42.662;23.278;2023-06-04T01:13:24;15.57;;;10.87;;
19758;SDS011;10038;42.662;23.278;2023-06-04T01:15:50;13.80;;;10.50;;
19758;SDS011;10038;42.662;23.278;2023-06-04T01:18:18;12.47;;;10.03;;
19758;SDS011;10038;42.662;23.278;2023-06-04T01:20:53;12.20;;;9.57;;
19758;SDS011;10038;42.662;23.278;2023-06-04T01:23:26;8.47;;;6.67;;
19758;SDS011;10038;42.662;23.278;2023-06-04T01:25:59;7.17;;;5.40;;
19758;SDS011;10038;42.662;23.278;2023-06-04T01:28:30;6.40;;;5.07;;
19758;SDS011;10038;42.662;23.278;2023-06-04T01:30:58;6.23;;;4.70;;
19758;SDS011;10038;42.662;23.278;2023-06-04T01:33:27;5.17;;;3.53;;
19758;SDS011;10038;42.662;23.278;2023-06-04T01:35:56;6.20;;;4.30;;
19758;SDS011;10038;42.662;23.278;2023-06-04T01:38:26;4.83;;;4.30;;
19758;SDS011;10038;42.662;23.278;2023-06-04T01:40:54;4.73;;;4.23;;
19758;SDS011;10038;42.662;23.278;2023-06-04T01:43:26;8.97;;;5.17;;
19758;SDS011;10038;42.662;23.278;2023-06-04T01:45:54;5.80;;;5.10;;
19758;SDS011;10038;42.662;23.278;2023-06-04T01:48:24;5.97;;;5.17;;
19758;SDS011;10038;42.662;23.278;2023-06-04T01:51:04;6.23;;;5.40;;
19758;SDS011;10038;42.662;23.278;2023-06-04T01:53:37;8.67;;;6.87;;
19758;SDS011;10038;42.662;23.278;2023-06-04T01:56:07;9.53;;;7.10;;
19758;SDS011;10038;42.662;23.278;2023-06-04T01:58:40;10.23;;;8.23;;
19758;SDS011;10038;42.662;23.278;2023-06-04T02:01:09;9.60;;;8.13;;
19758;SDS011;10038;42.662;23.278;2023-06-04T02:03:38;10.53;;;7.60;;
19758;SDS011;10038;42.662;23.278;2023-06-04T02:06:08;13.20;;;8.10;;
19758;SDS011;10038;42.662;23.278;2023-06-04T02:08:38;12.37;;;8.93;;
19758;SDS011;10038;42.662;23.278;2023-06-04T02:11:07;11.50;;;8.43;;
19758;SDS011;10038;42.662;23.278;2023-06-04T02:13:34;9.23;;;7.77;;
19758;SDS011;10038;42.662;23.278;2023-06-04T02:16:01;10.40;;;7.57;;
19758;SDS011;10038;42.662;23.278;2023-06-04T02:18:27;9.60;;;7.67;;
19758;SDS011;10038;42.662;23.278;2023-06-04T02:20:54;9.67;;;7.30;;
19758;SDS011;10038;42.662;23.278;2023-06-04T02:23:22;9.73;;;7.07;;
19758;SDS011;10038;42.662;23.278;2023-06-04T02:25:50;5.97;;;5.33;;
19758;SDS011;10038;42.662;23.278;2023-06-04T02:28:17;7.20;;;5.17;;
19758;SDS011;10038;42.662;23.278;2023-06-04T02:30:43;5.73;;;4.93;;
19758;SDS011;10038;42.662;23.278;2023-06-04T02:35:45;8.10;;;4.30;;
19758;SDS011;10038;42.662;23.278;2023-06-04T02:38:13;4.30;;;3.90;;
19758;SDS011;10038;42.662;23.278;2023-06-04T02:40:39;3.97;;;3.43;;
19758;SDS011;10038;42.662;23.278;2023-06-04T02:43:07;5.87;;;3.63;;
19758;SDS011;10038;42.662;23.278;2023-06-04T02:48:09;4.07;;;3.67;;
19758;SDS011;10038;42.662;23.278;2023-06-04T02:50:38;3.43;;;3.13;;
19758;SDS011;10038;42.662;23.278;2023-06-04T02:53:07;4.27;;;3.87;;
19758;SDS011;10038;42.662;23.278;2023-06-04T02:55:34;4.30;;;3.57;;
19758;SDS011;10038;42.662;23.278;2023-06-04T02:58:01;6.30;;;4.37;;
19758;SDS011;10038;42.662;23.278;2023-06-04T03:00:29;4.80;;;4.00;;
19758;SDS011;10038;42.662;23.278;2023-06-04T03:03:00;4.50;;;3.60;;
19758;SDS011;10038;42.662;23.278;2023-06-04T03:08:20;5.37;;;3.30;;
19758;SDS011;10038;42.662;23.278;2023-06-04T03:15:59;4.07;;;3.67;;
19758;SDS011;10038;42.662;23.278;2023-06-04T03:36:34;3.67;;;3.17;;
19758;SDS011;10038;42.662;23.278;2023-06-04T03:39:04;6.13;;;3.20;;
19758;SDS011;10038;42.662;23.278;2023-06-04T03:41:36;3.97;;;3.57;;
19758;SDS011;10038;42.662;23.278;2023-06-04T03:44:05;6.57;;;3.73;;
19758;SDS011;10038;42.662;23.278;2023-06-04T03:51:43;4.27;;;3.70;;
19758;SDS011;10038;42.662;23.278;2023-06-04T03:59:20;4.37;;;3.97;;
19758;SDS011;10038;42.662;23.278;2023-06-04T04:09:33;4.33;;;3.93;;
19758;SDS011;10038;42.662;23.278;2023-06-04T04:12:02;4.53;;;3.33;;
19758;SDS011;10038;42.662;23.278;2023-06-04T04:17:20;6.10;;;4.47;;
19758;SDS011;10038;42.662;23.278;2023-06-04T04:19:51;5.80;;;5.30;;
19758;SDS011;10038;42.662;23.278;2023-06-04T04:22:23;4.23;;;3.83;;
19758;SDS011;10038;42.662;23.278;2023-06-04T04:35:34;4.27;;;3.83;;
19758;SDS011;10038;42.662;23.278;2023-06-04T04:38:03;5.70;;;4.67;;
19758;SDS011;10038;42.662;23.278;2023-06-04T04:40:30;7.90;;;4.83;;
19758;SDS011;10038;42.662;23.278;2023-06-04T04:42:57;5.20;;;4.70;;
19758;SDS011;10038;42.662;23.278;2023-06-04T04:48:02;4.13;;;3.80;;
19758;SDS011;10038;42.662;23.278;2023-06-04T04:50:35;7.07;;;5.57;;
19758;SDS011;10038;42.662;23.278;2023-06-04T04:53:02;5.73;;;5.23;;
19758;SDS011;10038;42.662;23.278;2023-06-04T04:58:04;7.10;;;5.97;;
19758;SDS011;10038;42.662;23.278;2023-06-04T05:00:33;5.40;;;4.53;;
19758;SDS011;10038;42.662;23.278;2023-06-04T05:03:06;4.63;;;4.23;;
19758;SDS011;10038;42.662;23.278;2023-06-04T05:05:34;10.13;;;5.30;;
19758;SDS011;10038;42.662;23.278;2023-06-04T05:08:08;6.40;;;4.73;;
19758;SDS011;10038;42.662;23.278;2023-06-04T05:10:35;5.47;;;4.73;;
19758;SDS011;10038;42.662;23.278;2023-06-04T05:13:02;6.50;;;5.80;;
19758;SDS011;10038;42.662;23.278;2023-06-04T05:15:30;5.90;;;5.40;;
19758;SDS011;10038;42.662;23.278;2023-06-04T05:17:57;6.00;;;5.10;;
19758;SDS011;10038;42.662;23.278;2023-06-04T05:20:26;5.80;;;5.27;;
19758;SDS011;10038;42.662;23.278;2023-06-04T05:22:54;8.87;;;5.57;;
19758;SDS011;10038;42.662;23.278;2023-06-04T05:25:23;5.43;;;4.93;;
19758;SDS011;10038;42.662;23.278;2023-06-04T05:27:49;5.70;;;5.20;;
19758;SDS011;10038;42.662;23.278;2023-06-04T05:30:17;7.50;;;5.60;;
19758;SDS011;10038;42.662;23.278;2023-06-04T05:32:44;9.50;;;5.60;;
19758;SDS011;10038;42.662;23.278;2023-06-04T05:35:18;9.07;;;5.27;;
19758;SDS011;10038;42.662;23.278;2023-06-04T05:37:45;8.23;;;5.40;;
19758;SDS011;10038;42.662;23.278;2023-06-04T05:40:19;6.97;;;6.13;;
19758;SDS011;10038;42.662;23.278;2023-06-04T05:42:47;7.37;;;6.10;;
19758;SDS011;10038;42.662;23.278;2023-06-04T05:45:14;6.50;;;5.60;;
19758;SDS011;10038;42.662;23.278;2023-06-04T05:47:41;5.83;;;5.33;;
19758;SDS011;10038;42.662;23.278;2023-06-04T05:50:08;8.10;;;5.57;;
19758;SDS011;10038;42.662;23.278;2023-06-04T05:52:34;6.20;;;5.27;;
19758;SDS011;10038;42.662;23.278;2023-06-04T05:55:02;7.57;;;5.90;;
19758;SDS011;10038;42.662;23.278;2023-06-04T05:57:28;6.33;;;5.80;;
19758;SDS011;10038;42.662;23.278;2023-06-04T05:59:56;10.37;;;7.27;;
19758;SDS011;10038;42.662;23.278;2023-06-04T06:02:23;8.17;;;6.53;;
19758;SDS011;10038;42.662;23.278;2023-06-04T06:04:49;8.20;;;5.43;;
19758;SDS011;10038;42.662;23.278;2023-06-04T06:07:17;6.87;;;6.27;;
19758;SDS011;10038;42.662;23.278;2023-06-04T06:09:49;11.40;;;6.20;;
19758;SDS011;10038;42.662;23.278;2023-06-04T06:12:16;7.57;;;6.07;;
19758;SDS011;10038;42.662;23.278;2023-06-04T06:14:42;8.27;;;7.20;;
19758;SDS011;10038;42.662;23.278;2023-06-04T06:17:10;8.67;;;7.00;;
19758;SDS011;10038;42.662;23.278;2023-06-04T06:19:37;8.57;;;6.87;;
19758;SDS011;10038;42.662;23.278;2023-06-04T06:22:03;10.27;;;6.80;;
19758;SDS011;10038;42.662;23.278;2023-06-04T06:24:30;13.30;;;7.77;;
19758;SDS011;10038;42.662;23.278;2023-06-04T06:26:56;12.83;;;8.37;;
19758;SDS011;10038;42.662;23.278;2023-06-04T06:29:23;9.37;;;8.37;;
19758;SDS011;10038;42.662;23.278;2023-06-04T06:31:50;9.37;;;8.37;;
19758;SDS011;10038;42.662;23.278;2023-06-04T06:34:18;11.87;;;7.77;;
19758;SDS011;10038;42.662;23.278;2023-06-04T06:36:45;10.17;;;8.17;;
19758;SDS011;10038;42.662;23.278;2023-06-04T06:39:12;11.27;;;9.03;;
19758;SDS011;10038;42.662;23.278;2023-06-04T06:41:39;9.33;;;8.07;;
19758;SDS011;10038;42.662;23.278;2023-06-04T06:44:05;15.03;;;8.43;;
19758;SDS011;10038;42.662;23.278;2023-06-04T06:46:32;9.00;;;8.03;;
19758;SDS011;10038;42.662;23.278;2023-06-04T06:48:59;13.87;;;8.50;;
19758;SDS011;10038;42.662;23.278;2023-06-04T06:51:27;9.57;;;7.90;;
19758;SDS011;10038;42.662;23.278;2023-06-04T06:53:54;9.90;;;8.20;;
19758;SDS011;10038;42.662;23.278;2023-06-04T06:56:20;8.00;;;7.00;;
19758;SDS011;10038;42.662;23.278;2023-06-04T06:58:47;9.90;;;7.50;;
19758;SDS011;10038;42.662;23.278;2023-06-04T07:01:14;8.27;;;7.40;;
19758;SDS011;10038;42.662;23.278;2023-06-04T07:03:40;9.37;;;6.97;;
19758;SDS011;10038;42.662;23.278;2023-06-04T07:06:07;8.10;;;7.17;;
19758;SDS011;10038;42.662;23.278;2023-06-04T07:08:35;8.00;;;6.30;;
19758;SDS011;10038;42.662;23.278;2023-06-04T07:11:01;10.87;;;6.63;;
19758;SDS011;10038;42.662;23.278;2023-06-04T07:13:28;9.83;;;7.50;;
19758;SDS011;10038;42.662;23.278;2023-06-04T07:15:57;10.93;;;7.80;;
19758;SDS011;10038;42.662;23.278;2023-06-04T07:18:23;8.40;;;6.50;;
19758;SDS011;10038;42.662;23.278;2023-06-04T07:20:50;8.63;;;6.73;;
19758;SDS011;10038;42.662;23.278;2023-06-04T07:23:17;8.13;;;7.10;;
19758;SDS011;10038;42.662;23.278;2023-06-04T07:25:45;8.97;;;7.00;;
19758;SDS011;10038;42.662;23.278;2023-06-04T07:28:12;8.60;;;7.47;;
19758;SDS011;10038;42.662;23.278;2023-06-04T07:30:38;10.60;;;6.33;;
19758;SDS011;10038;42.662;23.278;2023-06-04T07:33:05;9.93;;;7.60;;
19758;SDS011;10038;42.662;23.278;2023-06-04T07:35:32;7.53;;;6.30;;
19758;SDS011;10038;42.662;23.278;2023-06-04T07:37:59;8.20;;;7.20;;
19758;SDS011;10038;42.662;23.278;2023-06-04T07:40:38;7.20;;;6.47;;
19758;SDS011;10038;42.662;23.278;2023-06-04T07:43:06;10.40;;;7.17;;
19758;SDS011;10038;42.662;23.278;2023-06-04T07:45:32;8.37;;;6.57;;
19758;SDS011;10038;42.662;23.278;2023-06-04T07:47:59;9.03;;;7.43;;
19758;SDS011;10038;42.662;23.278;2023-06-04T07:50:25;12.17;;;8.53;;
19758;SDS011;10038;42.662;23.278;2023-06-04T07:52:52;12.13;;;8.40;;
19758;SDS011;10038;42.662;23.278;2023-06-04T07:55:19;8.70;;;6.87;;
19758;SDS011;10038;42.662;23.278;2023-06-04T07:57:45;8.70;;;7.20;;
19758;SDS011;10038;42.662;23.278;2023-06-04T08:00:14;9.00;;;7.40;;
19758;SDS011;10038;42.662;23.278;2023-06-04T08:02:42;9.13;;;7.80;;
19758;SDS011;10038;42.662;23.278;2023-06-04T08:05:09;13.53;;;7.90;;
19758;SDS011;10038;42.662;23.278;2023-06-04T08:07:38;9.77;;;8.10;;
19758;SDS011;10038;42.662;23.278;2023-06-04T08:10:05;10.37;;;8.13;;
19758;SDS011;10038;42.662;23.278;2023-06-04T08:12:32;9.00;;;7.50;;
19758;SDS011;10038;42.662;23.278;2023-06-04T08:14:59;12.53;;;8.70;;
19758;SDS011;10038;42.662;23.278;2023-06-04T08:17:27;12.40;;;8.37;;
19758;SDS011;10038;42.662;23.278;2023-06-04T08:19:55;19.63;;;8.57;;
19758;SDS011;10038;42.662;23.278;2023-06-04T08:22:22;12.13;;;8.50;;
19758;SDS011;10038;42.662;23.278;2023-06-04T08:24:48;11.40;;;8.27;;
19758;SDS011;10038;42.662;23.278;2023-06-04T08:27:15;12.90;;;9.57;;
19758;SDS011;10038;42.662;23.278;2023-06-04T08:29:42;14.53;;;9.80;;
19758;SDS011;10038;42.662;23.278;2023-06-04T08:32:09;14.47;;;10.13;;
19758;SDS011;10038;42.662;23.278;2023-06-04T08:34:37;16.17;;;9.43;;
19758;SDS011;10038;42.662;23.278;2023-06-04T08:37:04;13.10;;;8.90;;
19758;SDS011;10038;42.662;23.278;2023-06-04T08:39:30;12.03;;;9.10;;
19758;SDS011;10038;42.662;23.278;2023-06-04T08:41:59;13.80;;;10.30;;
19758;SDS011;10038;42.662;23.278;2023-06-04T08:44:27;12.60;;;10.03;;
19758;SDS011;10038;42.662;23.278;2023-06-04T08:46:53;13.57;;;9.40;;
19758;SDS011;10038;42.662;23.278;2023-06-04T08:49:21;13.80;;;10.23;;
19758;SDS011;10038;42.662;23.278;2023-06-04T08:51:50;13.43;;;10.67;;
19758;SDS011;10038;42.662;23.278;2023-06-04T08:54:17;11.80;;;10.17;;
19758;SDS011;10038;42.662;23.278;2023-06-04T08:56:43;14.80;;;10.77;;
19758;SDS011;10038;42.662;23.278;2023-06-04T08:59:11;11.53;;;9.43;;
19758;SDS011;10038;42.662;23.278;2023-06-04T09:01:39;12.73;;;9.40;;
19758;SDS011;10038;42.662;23.278;2023-06-04T09:04:07;13.90;;;9.90;;
19758;SDS011;10038;42.662;23.278;2023-06-04T09:06:33;9.90;;;8.60;;
19758;SDS011;10038;42.662;23.278;2023-06-04T09:09:03;12.80;;;9.40;;
19758;SDS011;10038;42.662;23.278;2023-06-04T09:11:33;11.83;;;9.10;;
19758;SDS011;10038;42.662;23.278;2023-06-04T09:14:01;11.07;;;7.73;;
19758;SDS011;10038;42.662;23.278;2023-06-04T09:16:30;11.77;;;8.83;;
19758;SDS011;10038;42.662;23.278;2023-06-04T09:19:01;9.70;;;8.40;;
19758;SDS011;10038;42.662;23.278;2023-06-04T09:21:28;9.33;;;8.20;;
19758;SDS011;10038;42.662;23.278;2023-06-04T09:23:55;10.40;;;8.57;;
19758;SDS011;10038;42.662;23.278;2023-06-04T09:26:23;17.63;;;11.47;;
19758;SDS011;10038;42.662;23.278;2023-06-04T09:28:50;13.47;;;10.50;;
19758;SDS011;10038;42.662;23.278;2023-06-04T09:31:18;15.77;;;10.17;;
19758;SDS011;10038;42.662;23.278;2023-06-04T09:33:48;14.63;;;11.10;;
19758;SDS011;10038;42.662;23.278;2023-06-04T09:36:14;11.97;;;9.77;;
19758;SDS011;10038;42.662;23.278;2023-06-04T09:38:41;13.80;;;10.10;;
19758;SDS011;10038;42.662;23.278;2023-06-04T09:41:11;10.87;;;8.83;;
19758;SDS011;10038;42.662;23.278;2023-06-04T09:43:40;10.70;;;8.03;;
19758;SDS011;10038;42.662;23.278;2023-06-04T09:46:10;8.97;;;8.07;;
19758;SDS011;10038;42.662;23.278;2023-06-04T09:48:37;9.40;;;8.37;;
19758;SDS011;10038;42.662;23.278;2023-06-04T09:51:07;12.23;;;9.07;;
19758;SDS011;10038;42.662;23.278;2023-06-04T09:53:33;11.30;;;8.20;;
19758;SDS011;10038;42.662;23.278;2023-06-04T09:56:00;8.90;;;8.00;;
19758;SDS011;10038;42.662;23.278;2023-06-04T09:58:28;10.10;;;8.30;;
19758;SDS011;10038;42.662;23.278;2023-06-04T10:01:05;15.13;;;8.63;;
19758;SDS011;10038;42.662;23.278;2023-06-04T10:03:32;10.70;;;8.83;;
19758;SDS011;10038;42.662;23.278;2023-06-04T10:05:59;10.77;;;9.17;;
19758;SDS011;10038;42.662;23.278;2023-06-04T10:08:26;11.07;;;9.87;;
19758;SDS011;10038;42.662;23.278;2023-06-04T10:10:54;12.77;;;9.30;;
19758;SDS011;10038;42.662;23.278;2023-06-04T10:13:21;11.80;;;9.43;;
19758;SDS011;10038;42.662;23.278;2023-06-04T10:15:49;11.03;;;9.27;;
19758;SDS011;10038;42.662;23.278;2023-06-04T10:18:18;12.00;;;8.60;;
19758;SDS011;10038;42.662;23.278;2023-06-04T10:20:45;12.13;;;9.33;;
19758;SDS011;10038;42.662;23.278;2023-06-04T10:23:12;12.33;;;8.93;;
19758;SDS011;10038;42.662;23.278;2023-06-04T10:25:39;13.27;;;10.10;;
19758;SDS011;10038;42.662;23.278;2023-06-04T10:28:05;10.30;;;7.83;;
19758;SDS011;10038;42.662;23.278;2023-06-04T10:30:32;13.40;;;8.17;;
19758;SDS011;10038;42.662;23.278;2023-06-04T10:32:58;11.63;;;8.00;;
19758;SDS011;10038;42.662;23.278;2023-06-04T10:35:30;12.80;;;9.23;;
19758;SDS011;10038;42.662;23.278;2023-06-04T10:38:04;17.73;;;9.73;;
19758;SDS011;10038;42.662;23.278;2023-06-04T10:40:31;10.20;;;9.20;;
19758;SDS011;10038;42.662;23.278;2023-06-04T10:43:03;11.83;;;9.00;;
19758;SDS011;10038;42.662;23.278;2023-06-04T10:45:30;9.70;;;8.33;;
19758;SDS011;10038;42.662;23.278;2023-06-04T10:47:59;11.30;;;8.73;;
19758;SDS011;10038;42.662;23.278;2023-06-04T10:50:26;9.07;;;8.10;;
19758;SDS011;10038;42.662;23.278;2023-06-04T10:52:54;12.13;;;9.50;;
19758;SDS011;10038;42.662;23.278;2023-06-04T10:55:22;8.97;;;8.07;;
19758;SDS011;10038;42.662;23.278;2023-06-04T10:57:52;11.83;;;8.70;;
19758;SDS011;10038;42.662;23.278;2023-06-04T11:00:19;12.57;;;9.00;;
19758;SDS011;10038;42.662;23.278;2023-06-04T11:02:50;9.20;;;8.30;;
19758;SDS011;10038;42.662;23.278;2023-06-04T11:05:17;12.07;;;10.20;;
19758;SDS011;10038;42.662;23.278;2023-06-04T11:07:44;10.10;;;9.03;;
19758;SDS011;10038;42.662;23.278;2023-06-04T11:10:13;13.57;;;9.60;;
19758;SDS011;10038;42.662;23.278;2023-06-04T11:12:43;10.90;;;9.80;;
19758;SDS011;10038;42.662;23.278;2023-06-04T11:15:10;12.77;;;9.57;;
19758;SDS011;10038;42.662;23.278;2023-06-04T11:17:36;12.37;;;10.17;;
19758;SDS011;10038;42.662;23.278;2023-06-04T11:20:03;23.13;;;10.90;;
19758;SDS011;10038;42.662;23.278;2023-06-04T11:22:32;10.43;;;8.80;;
19758;SDS011;10038;42.662;23.278;2023-06-04T11:24:58;14.63;;;8.33;;
19758;SDS011;10038;42.662;23.278;2023-06-04T11:27:26;9.73;;;8.83;;
19758;SDS011;10038;42.662;23.278;2023-06-04T11:29:53;14.50;;;10.90;;
19758;SDS011;10038;42.662;23.278;2023-06-04T11:32:22;9.27;;;8.33;;
19758;SDS011;10038;42.662;23.278;2023-06-04T11:34:49;9.70;;;8.70;;
19758;SDS011;10038;42.662;23.278;2023-06-04T11:37:16;11.10;;;9.73;;
19758;SDS011;10038;42.662;23.278;2023-06-04T11:39:42;17.33;;;10.93;;
19758;SDS011;10038;42.662;23.278;2023-06-04T11:42:09;10.37;;;9.33;;
19758;SDS011;10038;42.662;23.278;2023-06-04T11:44:37;12.43;;;11.13;;
19758;SDS011;10038;42.662;23.278;2023-06-04T11:47:10;12.97;;;11.60;;
19758;SDS011;10038;42.662;23.278;2023-06-04T11:49:37;18.73;;;12.70;;
19758;SDS011;10038;42.662;23.278;2023-06-04T11:52:04;13.10;;;11.57;;
19758;SDS011;10038;42.662;23.278;2023-06-04T11:54:31;12.77;;;11.43;;
19758;SDS011;10038;42.662;23.278;2023-06-04T11:57:02;10.77;;;9.30;;
19758;SDS011;10038;42.662;23.278;2023-06-04T11:59:30;11.40;;;8.07;;
19758;SDS011;10038;42.662;23.278;2023-06-04T12:01:58;12.27;;;8.90;;
19758;SDS011;10038;42.662;23.278;2023-06-04T12:04:29;11.60;;;9.57;;
19758;SDS011;10038;42.662;23.278;2023-06-04T12:06:56;9.60;;;8.60;;
19758;SDS011;10038;42.662;23.278;2023-06-04T12:09:24;11.43;;;8.87;;
19758;SDS011;10038;42.662;23.278;2023-06-04T12:11:57;10.63;;;9.50;;
19758;SDS011;10038;42.662;23.278;2023-06-04T12:14:24;10.80;;;9.70;;
19758;SDS011;10038;42.662;23.278;2023-06-04T12:17:01;14.33;;;10.57;;
19758;SDS011;10038;42.662;23.278;2023-06-04T12:19:28;14.40;;;10.63;;
19758;SDS011;10038;42.662;23.278;2023-06-04T12:22:01;14.50;;;11.90;;
19758;SDS011;10038;42.662;23.278;2023-06-04T12:24:28;13.20;;;11.67;;
19758;SDS011;10038;42.662;23.278;2023-06-04T12:27:04;13.20;;;11.90;;
19758;SDS011;10038;42.662;23.278;2023-06-04T12:29:32;13.67;;;12.47;;
19758;SDS011;10038;42.662;23.278;2023-06-04T12:32:02;13.50;;;12.13;;
19758;SDS011;10038;42.662;23.278;2023-06-04T12:34:30;13.47;;;12.10;;
19758;SDS011;10038;42.662;23.278;2023-06-04T12:36:56;14.80;;;13.13;;
19758;SDS011;10038;42.662;23.278;2023-06-04T12:39:23;15.90;;;12.00;;
19758;SDS011;10038;42.662;23.278;2023-06-04T12:41:50;12.80;;;11.60;;
19758;SDS011;10038;42.662;23.278;2023-06-04T12:44:16;15.47;;;12.93;;
19758;SDS011;10038;42.662;23.278;2023-06-04T12:46:43;14.40;;;12.90;;
19758;SDS011;10038;42.662;23.278;2023-06-04T12:49:11;15.33;;;13.00;;
19758;SDS011;10038;42.662;23.278;2023-06-04T12:51:38;13.17;;;11.83;;
19758;SDS011;10038;42.662;23.278;2023-06-04T12:54:04;14.63;;;12.20;;
19758;SDS011;10038;42.662;23.278;2023-06-04T12:56:31;14.13;;;11.50;;
19758;SDS011;10038;42.662;23.278;2023-06-04T12:58:58;25.27;;;13.63;;
19758;SDS011;10038;42.662;23.278;2023-06-04T13:01:25;14.67;;;12.70;;
19758;SDS011;10038;42.662;23.278;2023-06-04T13:03:51;14.03;;;12.47;;
19758;SDS011;10038;42.662;23.278;2023-06-04T13:06:19;11.13;;;9.93;;
19758;SDS011;10038;42.662;23.278;2023-06-04T13:08:46;12.70;;;11.37;;
19758;SDS011;10038;42.662;23.278;2023-06-04T13:11:12;12.37;;;11.10;;
19758;SDS011;10038;42.662;23.278;2023-06-04T13:13:39;15.00;;;11.40;;
19758;SDS011;10038;42.662;23.278;2023-06-04T13:16:06;12.40;;;11.20;;
19758;SDS011;10038;42.662;23.278;2023-06-04T13:18:32;13.03;;;11.50;;
19758;SDS011;10038;42.662;23.278;2023-06-04T13:20:59;13.03;;;11.23;;
19758;SDS011;10038;42.662;23.278;2023-06-04T13:23:27;13.23;;;11.90;;
19758;SDS011;10038;42.662;23.278;2023-06-04T13:25:54;13.53;;;12.30;;
19758;SDS011;10038;42.662;23.278;2023-06-04T13:28:21;13.60;;;12.17;;
19758;SDS011;10038;42.662;23.278;2023-06-04T13:30:47;12.93;;;11.73;;
19758;SDS011;10038;42.662;23.278;2023-06-04T13:33:14;13.60;;;12.07;;
19758;SDS011;10038;42.662;23.278;2023-06-04T13:35:41;13.83;;;12.43;;
19758;SDS011;10038;42.662;23.278;2023-06-04T13:38:09;13.53;;;12.23;;
19758;SDS011;10038;42.662;23.278;2023-06-04T13:40:39;14.50;;;13.00;;
19758;SDS011;10038;42.662;23.278;2023-06-04T13:43:05;13.03;;;11.07;;
19758;SDS011;10038;42.662;23.278;2023-06-04T13:45:33;11.80;;;10.70;;
19758;SDS011;10038;42.662;23.278;2023-06-04T13:48:00;10.17;;;9.20;;
19758;SDS011;10038;42.662;23.278;2023-06-04T13:50:30;11.03;;;10.03;;
19758;SDS011;10038;42.662;23.278;2023-06-04T13:52:56;14.00;;;10.27;;
19758;SDS011;10038;42.662;23.278;2023-06-04T13:55:23;9.73;;;8.47;;
19758;SDS011;10038;42.662;23.278;2023-06-04T13:57:51;10.57;;;8.90;;
19758;SDS011;10038;42.662;23.278;2023-06-04T14:00:17;10.77;;;9.60;;
19758;SDS011;10038;42.662;23.278;2023-06-04T14:02:46;10.33;;;9.40;;
19758;SDS011;10038;42.662;23.278;2023-06-04T14:05:13;10.67;;;9.13;;
19758;SDS011;10038;42.662;23.278;2023-06-04T14:07:40;9.50;;;8.60;;
19758;SDS011;10038;42.662;23.278;2023-06-04T14:10:07;9.27;;;8.40;;
19758;SDS011;10038;42.662;23.278;2023-06-04T14:12:34;9.80;;;8.80;;
19758;SDS011;10038;42.662;23.278;2023-06-04T14:15:03;9.97;;;8.97;;
19758;SDS011;10038;42.662;23.278;2023-06-04T14:17:29;9.63;;;8.73;;
19758;SDS011;10038;42.662;23.278;2023-06-04T14:19:56;10.53;;;9.33;;
19758;SDS011;10038;42.662;23.278;2023-06-04T14:22:22;11.23;;;9.40;;
19758;SDS011;10038;42.662;23.278;2023-06-04T14:24:49;11.90;;;9.47;;
19758;SDS011;10038;42.662;23.278;2023-06-04T14:27:16;10.40;;;9.23;;
19758;SDS011;10038;42.662;23.278;2023-06-04T14:29:42;9.87;;;8.87;;
19758;SDS011;10038;42.662;23.278;2023-06-04T14:32:10;10.60;;;9.50;;
19758;SDS011;10038;42.662;23.278;2023-06-04T14:34:37;10.50;;;9.43;;
19758;SDS011;10038;42.662;23.278;2023-06-04T14:37:04;11.10;;;8.60;;
19758;SDS011;10038;42.662;23.278;2023-06-04T14:39:30;12.50;;;9.73;;
19758;SDS011;10038;42.662;23.278;2023-06-04T14:41:57;10.13;;;8.90;;
19758;SDS011;10038;42.662;23.278;2023-06-04T14:44:23;11.63;;;9.30;;
19758;SDS011;10038;42.662;23.278;2023-06-04T14:46:50;13.23;;;9.87;;
19758;SDS011;10038;42.662;23.278;2023-06-04T14:49:19;9.77;;;8.80;;
19758;SDS011;10038;42.662;23.278;2023-06-04T14:51:45;10.60;;;9.60;;
19758;SDS011;10038;42.662;23.278;2023-06-04T14:54:12;11.23;;;10.23;;
19758;SDS011;10038;42.662;23.278;2023-06-04T14:56:38;10.07;;;9.07;;
19758;SDS011;10038;42.662;23.278;2023-06-04T14:59:05;12.63;;;10.50;;
19758;SDS011;10038;42.662;23.278;2023-06-04T15:01:34;12.93;;;11.20;;
19758;SDS011;10038;42.662;23.278;2023-06-04T15:04:00;12.00;;;10.80;;
19758;SDS011;10038;42.662;23.278;2023-06-04T15:06:28;16.70;;;12.43;;
19758;SDS011;10038;42.662;23.278;2023-06-04T15:08:55;11.97;;;10.67;;
19758;SDS011;10038;42.662;23.278;2023-06-04T15:11:22;17.57;;;11.93;;
19758;SDS011;10038;42.662;23.278;2023-06-04T15:13:48;11.57;;;10.40;;
19758;SDS011;10038;42.662;23.278;2023-06-04T15:16:15;20.23;;;11.23;;
19758;SDS011;10038;42.662;23.278;2023-06-04T15:18:41;21.63;;;15.77;;
19758;SDS011;10038;42.662;23.278;2023-06-04T15:21:08;21.07;;;18.07;;
19758;SDS011;10038;42.662;23.278;2023-06-04T15:23:36;20.77;;;14.37;;
19758;SDS011;10038;42.662;23.278;2023-06-04T15:26:02;16.10;;;11.70;;
19758;SDS011;10038;42.662;23.278;2023-06-04T15:28:29;17.67;;;12.47;;
19758;SDS011;10038;42.662;23.278;2023-06-04T15:30:55;19.47;;;12.97;;
19758;SDS011;10038;42.662;23.278;2023-06-04T15:33:22;18.13;;;11.63;;
19758;SDS011;10038;42.662;23.278;2023-06-04T15:35:48;20.90;;;13.70;;